sensor_id;sensor_type;location;lat;lon;timestamp;P1;durP1;ratioP1;P2;durP2;ratioP2
80850;SDS011;70268;50.292;6.666;2023-08-06T00:00:41;1.90;;;1.20;;
80850;SDS011;70268;50.292;6.666;2023-08-06T00:03:11;1.05;;;0.88;;
80850;SDS011;70268;50.292;6.666;2023-08-06T00:05:41;1.63;;;1.05;;
80850;SDS011;70268;50.292;6.666;2023-08-06T00:08:10;2.33;;;1.13;;
80850;SDS011;70268;50.292;6.666;2023-08-06T00:10:39;1.75;;;1.35;;
80850;SDS011;70268;50.292;6.666;2023-08-06T00:13:08;4.68;;;1.10;;
80850;SDS011;70268;50.292;6.666;2023-08-06T00:15:36;6.55;;;1.17;;
80850;SDS011;70268;50.292;6.666;2023-08-06T00:18:05;2.20;;;1.17;;
80850;SDS011;70268;50.292;6.666;2023-08-06T00:20:35;2.75;;;1.27;;
80850;SDS011;70268;50.292;6.666;2023-08-06T00:23:07;1.52;;;1.10;;
80850;SDS011;70268;50.292;6.666;2023-08-06T00:25:36;3.05;;;1.23;;
80850;SDS011;70268;50.292;6.666;2023-08-06T00:28:05;1.27;;;1.10;;
80850;SDS011;70268;50.292;6.666;2023-08-06T00:30:33;3.15;;;1.20;;
80850;SDS011;70268;50.292;6.666;2023-08-06T00:33:02;2.55;;;1.00;;
80850;SDS011;70268;50.292;6.666;2023-08-06T00:35:31;3.30;;;1.48;;
80850;SDS011;70268;50.292;6.666;2023-08-06T00:38:01;1.92;;;1.42;;
80850;SDS011;70268;50.292;6.666;2023-08-06T00:40:30;5.05;;;1.88;;
80850;SDS011;70268;50.292;6.666;2023-08-06T00:42:58;1.45;;;1.00;;
80850;SDS011;70268;50.292;6.666;2023-08-06T00:45:27;1.30;;;0.82;;
80850;SDS011;70268;50.292;6.666;2023-08-06T00:47:57;3.50;;;1.10;;
80850;SDS011;70268;50.292;6.666;2023-08-06T00:50:26;2.58;;;1.75;;
80850;SDS011;70268;50.292;6.666;2023-08-06T00:52:55;2.10;;;1.30;;
80850;SDS011;70268;50.292;6.666;2023-08-06T00:55:26;3.10;;;0.90;;
80850;SDS011;70268;50.292;6.666;2023-08-06T00:57:54;6.72;;;1.63;;
80850;SDS011;70268;50.292;6.666;2023-08-06T01:00:24;5.90;;;1.42;;
80850;SDS011;70268;50.292;6.666;2023-08-06T01:02:54;1.73;;;0.95;;
80850;SDS011;70268;50.292;6.666;2023-08-06T01:05:22;3.17;;;1.10;;
80850;SDS011;70268;50.292;6.666;2023-08-06T01:07:54;4.00;;;1.88;;
80850;SDS011;70268;50.292;6.666;2023-08-06T01:10:40;2.15;;;1.15;;
80850;SDS011;70268;50.292;6.666;2023-08-06T01:13:23;3.40;;;1.13;;
80850;SDS011;70268;50.292;6.666;2023-08-06T01:15:55;5.47;;;1.50;;
80850;SDS011;70268;50.292;6.666;2023-08-06T01:18:26;1.60;;;0.82;;
80850;SDS011;70268;50.292;6.666;2023-08-06T01:20:56;1.90;;;0.90;;
80850;SDS011;70268;50.292;6.666;2023-08-06T01:23:25;2.08;;;1.10;;
80850;SDS011;70268;50.292;6.666;2023-08-06T01:25:56;1.15;;;0.77;;
80850;SDS011;70268;50.292;6.666;2023-08-06T01:28:33;1.05;;;0.90;;
80850;SDS011;70268;50.292;6.666;2023-08-06T01:31:10;1.38;;;0.82;;
80850;SDS011;70268;50.292;6.666;2023-08-06T01:33:46;2.00;;;0.90;;
80850;SDS011;70268;50.292;6.666;2023-08-06T01:36:18;1.27;;;0.88;;
80850;SDS011;70268;50.292;6.666;2023-08-06T01:38:48;1.45;;;0.98;;
80850;SDS011;70268;50.292;6.666;2023-08-06T01:41:18;1.77;;;1.13;;
80850;SDS011;70268;50.292;6.666;2023-08-06T01:43:47;1.92;;;0.70;;
80850;SDS011;70268;50.292;6.666;2023-08-06T01:46:16;1.30;;;0.82;;
80850;SDS011;70268;50.292;6.666;2023-08-06T01:48:44;2.08;;;1.23;;
80850;SDS011;70268;50.292;6.666;2023-08-06T01:51:13;1.95;;;0.90;;
80850;SDS011;70268;50.292;6.666;2023-08-06T01:53:43;3.20;;;1.02;;
80850;SDS011;70268;50.292;6.666;2023-08-06T01:56:12;2.80;;;0.70;;
80850;SDS011;70268;50.292;6.666;2023-08-06T01:58:41;3.70;;;1.08;;
80850;SDS011;70268;50.292;6.666;2023-08-06T02:01:09;2.08;;;0.80;;
80850;SDS011;70268;50.292;6.666;2023-08-06T02:03:38;3.00;;;0.98;;
80850;SDS011;70268;50.292;6.666;2023-08-06T02:06:06;0.90;;;0.77;;
80850;SDS011;70268;50.292;6.666;2023-08-06T02:08:35;1.95;;;1.40;;
80850;SDS011;70268;50.292;6.666;2023-08-06T02:11:05;1.15;;;0.60;;
80850;SDS011;70268;50.292;6.666;2023-08-06T02:13:34;1.05;;;0.70;;
80850;SDS011;70268;50.292;6.666;2023-08-06T02:16:03;2.97;;;1.52;;
80850;SDS011;70268;50.292;6.666;2023-08-06T02:18:32;3.35;;;0.90;;
80850;SDS011;70268;50.292;6.666;2023-08-06T02:21:01;1.52;;;0.82;;
80850;SDS011;70268;50.292;6.666;2023-08-06T02:23:30;2.10;;;1.10;;
80850;SDS011;70268;50.292;6.666;2023-08-06T02:25:59;4.57;;;0.95;;
80850;SDS011;70268;50.292;6.666;2023-08-06T02:28:30;2.33;;;0.82;;
80850;SDS011;70268;50.292;6.666;2023-08-06T02:30:58;2.25;;;1.10;;
80850;SDS011;70268;50.292;6.666;2023-08-06T02:33:28;2.97;;;1.00;;
80850;SDS011;70268;50.292;6.666;2023-08-06T02:35:59;1.23;;;1.13;;
80850;SDS011;70268;50.292;6.666;2023-08-06T02:38:29;0.93;;;0.70;;
80850;SDS011;70268;50.292;6.666;2023-08-06T02:40:58;2.38;;;0.70;;
80850;SDS011;70268;50.292;6.666;2023-08-06T02:43:27;2.35;;;0.60;;
80850;SDS011;70268;50.292;6.666;2023-08-06T02:45:57;2.78;;;0.73;;
80850;SDS011;70268;50.292;6.666;2023-08-06T02:48:27;1.38;;;0.82;;
80850;SDS011;70268;50.292;6.666;2023-08-06T02:50:59;1.13;;;0.60;;
80850;SDS011;70268;50.292;6.666;2023-08-06T02:53:30;1.25;;;0.95;;
80850;SDS011;70268;50.292;6.666;2023-08-06T02:56:03;2.40;;;0.80;;
80850;SDS011;70268;50.292;6.666;2023-08-06T02:58:47;1.88;;;1.00;;
80850;SDS011;70268;50.292;6.666;2023-08-06T03:01:33;0.82;;;0.60;;
80850;SDS011;70268;50.292;6.666;2023-08-06T03:04:10;2.20;;;0.88;;
80850;SDS011;70268;50.292;6.666;2023-08-06T03:06:43;2.10;;;1.25;;
80850;SDS011;70268;50.292;6.666;2023-08-06T03:09:11;1.02;;;0.75;;
80850;SDS011;70268;50.292;6.666;2023-08-06T03:11:40;1.85;;;0.73;;
80850;SDS011;70268;50.292;6.666;2023-08-06T03:14:12;1.38;;;0.60;;
80850;SDS011;70268;50.292;6.666;2023-08-06T03:16:44;1.77;;;0.95;;
80850;SDS011;70268;50.292;6.666;2023-08-06T03:19:15;1.05;;;0.60;;
80850;SDS011;70268;50.292;6.666;2023-08-06T03:21:44;1.75;;;0.50;;
80850;SDS011;70268;50.292;6.666;2023-08-06T03:24:14;2.92;;;0.90;;
80850;SDS011;70268;50.292;6.666;2023-08-06T03:26:45;0.73;;;0.63;;
80850;SDS011;70268;50.292;6.666;2023-08-06T03:29:14;1.65;;;0.73;;
80850;SDS011;70268;50.292;6.666;2023-08-06T03:31:44;2.10;;;0.85;;
80850;SDS011;70268;50.292;6.666;2023-08-06T03:34:15;1.63;;;0.70;;
80850;SDS011;70268;50.292;6.666;2023-08-06T03:36:44;1.50;;;0.70;;
80850;SDS011;70268;50.292;6.666;2023-08-06T03:39:13;1.27;;;0.55;;
80850;SDS011;70268;50.292;6.666;2023-08-06T03:41:42;3.88;;;1.10;;
80850;SDS011;70268;50.292;6.666;2023-08-06T03:44:11;1.75;;;0.70;;
80850;SDS011;70268;50.292;6.666;2023-08-06T03:46:41;1.08;;;0.60;;
80850;SDS011;70268;50.292;6.666;2023-08-06T03:49:11;1.38;;;0.68;;
80850;SDS011;70268;50.292;6.666;2023-08-06T03:51:40;1.60;;;0.70;;
80850;SDS011;70268;50.292;6.666;2023-08-06T03:54:09;3.25;;;0.88;;
80850;SDS011;70268;50.292;6.666;2023-08-06T03:56:38;3.47;;;0.80;;
80850;SDS011;70268;50.292;6.666;2023-08-06T03:59:07;1.40;;;0.90;;
80850;SDS011;70268;50.292;6.666;2023-08-06T04:01:35;1.33;;;0.80;;
80850;SDS011;70268;50.292;6.666;2023-08-06T04:04:04;1.95;;;0.60;;
80850;SDS011;70268;50.292;6.666;2023-08-06T04:06:34;0.75;;;0.70;;
80850;SDS011;70268;50.292;6.666;2023-08-06T04:09:02;1.25;;;0.77;;
80850;SDS011;70268;50.292;6.666;2023-08-06T04:11:31;1.50;;;0.57;;
80850;SDS011;70268;50.292;6.666;2023-08-06T04:14:00;0.77;;;0.70;;
80850;SDS011;70268;50.292;6.666;2023-08-06T04:16:30;4.70;;;0.75;;
80850;SDS011;70268;50.292;6.666;2023-08-06T04:18:58;0.75;;;0.50;;
80850;SDS011;70268;50.292;6.666;2023-08-06T04:21:27;0.50;;;0.50;;
80850;SDS011;70268;50.292;6.666;2023-08-06T04:23:57;1.30;;;0.50;;
80850;SDS011;70268;50.292;6.666;2023-08-06T04:26:26;0.98;;;0.60;;
80850;SDS011;70268;50.292;6.666;2023-08-06T04:28:54;2.25;;;1.17;;
80850;SDS011;70268;50.292;6.666;2023-08-06T04:31:23;1.77;;;0.60;;
80850;SDS011;70268;50.292;6.666;2023-08-06T04:33:52;0.82;;;0.65;;
80850;SDS011;70268;50.292;6.666;2023-08-06T04:36:20;1.08;;;0.60;;
80850;SDS011;70268;50.292;6.666;2023-08-06T04:38:49;1.90;;;0.63;;
80850;SDS011;70268;50.292;6.666;2023-08-06T04:41:19;1.52;;;0.90;;
80850;SDS011;70268;50.292;6.666;2023-08-06T04:43:47;0.57;;;0.50;;
80850;SDS011;70268;50.292;6.666;2023-08-06T04:46:16;2.67;;;0.70;;
80850;SDS011;70268;50.292;6.666;2023-08-06T04:48:45;1.50;;;0.80;;
80850;SDS011;70268;50.292;6.666;2023-08-06T04:51:14;0.93;;;0.80;;
80850;SDS011;70268;50.292;6.666;2023-08-06T04:53:42;0.60;;;0.50;;
80850;SDS011;70268;50.292;6.666;2023-08-06T04:56:11;0.65;;;0.60;;
80850;SDS011;70268;50.292;6.666;2023-08-06T04:58:41;1.60;;;0.60;;
80850;SDS011;70268;50.292;6.666;2023-08-06T05:01:09;3.33;;;0.68;;
80850;SDS011;70268;50.292;6.666;2023-08-06T05:03:38;4.47;;;0.73;;
80850;SDS011;70268;50.292;6.666;2023-08-06T05:06:07;2.22;;;0.88;;
80850;SDS011;70268;50.292;6.666;2023-08-06T05:08:35;4.60;;;0.85;;
80850;SDS011;70268;50.292;6.666;2023-08-06T05:11:04;0.90;;;0.50;;
80850;SDS011;70268;50.292;6.666;2023-08-06T05:13:33;2.53;;;0.70;;
80850;SDS011;70268;50.292;6.666;2023-08-06T05:16:03;1.52;;;0.50;;
80850;SDS011;70268;50.292;6.666;2023-08-06T05:18:31;1.65;;;0.57;;
80850;SDS011;70268;50.292;6.666;2023-08-06T05:21:01;4.20;;;0.82;;
80850;SDS011;70268;50.292;6.666;2023-08-06T05:23:30;0.98;;;0.60;;
80850;SDS011;70268;50.292;6.666;2023-08-06T05:25:58;1.42;;;0.43;;
80850;SDS011;70268;50.292;6.666;2023-08-06T05:28:27;5.72;;;0.73;;
80850;SDS011;70268;50.292;6.666;2023-08-06T05:30:56;2.17;;;0.50;;
80850;SDS011;70268;50.292;6.666;2023-08-06T05:33:26;2.08;;;0.60;;
80850;SDS011;70268;50.292;6.666;2023-08-06T05:35:54;0.45;;;0.40;;
80850;SDS011;70268;50.292;6.666;2023-08-06T05:38:23;4.20;;;1.63;;
80850;SDS011;70268;50.292;6.666;2023-08-06T05:40:52;2.97;;;0.60;;
80850;SDS011;70268;50.292;6.666;2023-08-06T05:43:20;1.10;;;0.50;;
80850;SDS011;70268;50.292;6.666;2023-08-06T05:45:49;5.07;;;0.70;;
80850;SDS011;70268;50.292;6.666;2023-08-06T05:48:18;1.30;;;0.75;;
80850;SDS011;70268;50.292;6.666;2023-08-06T05:50:48;4.00;;;0.80;;
80850;SDS011;70268;50.292;6.666;2023-08-06T05:53:16;1.42;;;0.47;;
80850;SDS011;70268;50.292;6.666;2023-08-06T05:55:45;6.75;;;0.70;;
80850;SDS011;70268;50.292;6.666;2023-08-06T05:58:14;5.07;;;0.90;;
80850;SDS011;70268;50.292;6.666;2023-08-06T06:00:42;3.95;;;0.88;;
80850;SDS011;70268;50.292;6.666;2023-08-06T06:03:11;4.40;;;0.88;;
80850;SDS011;70268;50.292;6.666;2023-08-06T06:05:40;3.90;;;0.60;;
80850;SDS011;70268;50.292;6.666;2023-08-06T06:08:10;2.72;;;0.55;;
80850;SDS011;70268;50.292;6.666;2023-08-06T06:10:39;6.72;;;1.08;;
80850;SDS011;70268;50.292;6.666;2023-08-06T06:13:08;0.52;;;0.40;;
80850;SDS011;70268;50.292;6.666;2023-08-06T06:15:36;1.20;;;0.60;;
80850;SDS011;70268;50.292;6.666;2023-08-06T06:18:06;3.45;;;0.60;;
80850;SDS011;70268;50.292;6.666;2023-08-06T06:20:34;0.95;;;0.50;;
80850;SDS011;70268;50.292;6.666;2023-08-06T06:23:03;2.75;;;0.40;;
80850;SDS011;70268;50.292;6.666;2023-08-06T06:25:33;5.35;;;0.65;;
80850;SDS011;70268;50.292;6.666;2023-08-06T06:28:01;1.55;;;0.32;;
80850;SDS011;70268;50.292;6.666;2023-08-06T06:30:30;3.13;;;0.60;;
80850;SDS011;70268;50.292;6.666;2023-08-06T06:32:59;1.67;;;0.40;;
80850;SDS011;70268;50.292;6.666;2023-08-06T06:35:27;3.10;;;1.48;;
80850;SDS011;70268;50.292;6.666;2023-08-06T06:37:56;2.58;;;1.35;;
80850;SDS011;70268;50.292;6.666;2023-08-06T06:40:24;1.20;;;0.50;;
80850;SDS011;70268;50.292;6.666;2023-08-06T06:42:54;1.27;;;0.52;;
80850;SDS011;70268;50.292;6.666;2023-08-06T06:45:23;1.80;;;0.50;;
80850;SDS011;70268;50.292;6.666;2023-08-06T06:47:51;1.58;;;0.52;;
80850;SDS011;70268;50.292;6.666;2023-08-06T06:50:20;3.67;;;0.55;;
80850;SDS011;70268;50.292;6.666;2023-08-06T06:52:49;0.93;;;0.52;;
80850;SDS011;70268;50.292;6.666;2023-08-06T06:55:17;2.92;;;0.60;;
80850;SDS011;70268;50.292;6.666;2023-08-06T06:57:46;3.90;;;1.23;;
80850;SDS011;70268;50.292;6.666;2023-08-06T07:00:15;0.75;;;0.52;;
80850;SDS011;70268;50.292;6.666;2023-08-06T07:02:44;3.15;;;0.30;;
80850;SDS011;70268;50.292;6.666;2023-08-06T07:05:13;1.25;;;0.30;;
80850;SDS011;70268;50.292;6.666;2023-08-06T07:07:41;0.95;;;0.50;;
80850;SDS011;70268;50.292;6.666;2023-08-06T07:10:10;2.72;;;0.70;;
80850;SDS011;70268;50.292;6.666;2023-08-06T07:12:39;3.13;;;0.60;;
80850;SDS011;70268;50.292;6.666;2023-08-06T07:15:08;3.08;;;0.50;;
80850;SDS011;70268;50.292;6.666;2023-08-06T07:17:38;0.98;;;0.45;;
80850;SDS011;70268;50.292;6.666;2023-08-06T07:20:07;1.73;;;0.50;;
80850;SDS011;70268;50.292;6.666;2023-08-06T07:22:36;1.85;;;0.45;;
80850;SDS011;70268;50.292;6.666;2023-08-06T07:25:05;2.63;;;0.75;;
80850;SDS011;70268;50.292;6.666;2023-08-06T07:27:33;0.80;;;0.47;;
80850;SDS011;70268;50.292;6.666;2023-08-06T07:30:03;0.50;;;0.30;;
80850;SDS011;70268;50.292;6.666;2023-08-06T07:32:32;1.40;;;0.50;;
80850;SDS011;70268;50.292;6.666;2023-08-06T07:35:03;1.48;;;0.70;;
80850;SDS011;70268;50.292;6.666;2023-08-06T07:37:31;4.68;;;0.63;;
80850;SDS011;70268;50.292;6.666;2023-08-06T07:40:00;3.15;;;0.50;;
80850;SDS011;70268;50.292;6.666;2023-08-06T07:42:29;3.65;;;0.60;;
80850;SDS011;70268;50.292;6.666;2023-08-06T07:44:57;1.40;;;0.60;;
80850;SDS011;70268;50.292;6.666;2023-08-06T07:47:26;2.92;;;0.77;;
80850;SDS011;70268;50.292;6.666;2023-08-06T07:49:55;1.90;;;0.30;;
80850;SDS011;70268;50.292;6.666;2023-08-06T07:52:25;2.15;;;0.40;;
80850;SDS011;70268;50.292;6.666;2023-08-06T07:54:54;2.38;;;0.50;;
80850;SDS011;70268;50.292;6.666;2023-08-06T07:57:22;0.90;;;0.43;;
80850;SDS011;70268;50.292;6.666;2023-08-06T07:59:51;2.85;;;0.68;;
80850;SDS011;70268;50.292;6.666;2023-08-06T08:02:20;11.00;;;0.60;;
80850;SDS011;70268;50.292;6.666;2023-08-06T08:04:49;0.65;;;0.50;;
80850;SDS011;70268;50.292;6.666;2023-08-06T08:07:18;2.83;;;0.40;;
80850;SDS011;70268;50.292;6.666;2023-08-06T08:09:49;4.13;;;0.30;;
80850;SDS011;70268;50.292;6.666;2023-08-06T08:12:17;2.55;;;0.40;;
80850;SDS011;70268;50.292;6.666;2023-08-06T08:14:46;0.88;;;0.40;;
80850;SDS011;70268;50.292;6.666;2023-08-06T08:17:15;1.05;;;0.30;;
80850;SDS011;70268;50.292;6.666;2023-08-06T08:19:43;1.08;;;0.30;;
80850;SDS011;70268;50.292;6.666;2023-08-06T08:22:12;0.80;;;0.40;;
80850;SDS011;70268;50.292;6.666;2023-08-06T08:24:40;3.13;;;0.40;;
80850;SDS011;70268;50.292;6.666;2023-08-06T08:27:10;0.63;;;0.32;;
80850;SDS011;70268;50.292;6.666;2023-08-06T08:29:39;0.25;;;0.25;;
80850;SDS011;70268;50.292;6.666;2023-08-06T08:32:07;0.90;;;0.30;;
80850;SDS011;70268;50.292;6.666;2023-08-06T08:34:37;0.55;;;0.30;;
80850;SDS011;70268;50.292;6.666;2023-08-06T08:37:05;2.60;;;0.30;;
80850;SDS011;70268;50.292;6.666;2023-08-06T08:39:34;0.40;;;0.30;;
80850;SDS011;70268;50.292;6.666;2023-08-06T08:42:03;0.30;;;0.20;;
80850;SDS011;70268;50.292;6.666;2023-08-06T08:44:34;0.82;;;0.20;;
80850;SDS011;70268;50.292;6.666;2023-08-06T08:47:06;0.80;;;0.40;;
80850;SDS011;70268;50.292;6.666;2023-08-06T08:49:36;0.28;;;0.28;;
80850;SDS011;70268;50.292;6.666;2023-08-06T08:52:05;2.15;;;0.38;;
80850;SDS011;70268;50.292;6.666;2023-08-06T08:54:37;3.83;;;0.50;;
80850;SDS011;70268;50.292;6.666;2023-08-06T08:57:06;7.15;;;0.57;;
80850;SDS011;70268;50.292;6.666;2023-08-06T08:59:36;5.05;;;0.60;;
80850;SDS011;70268;50.292;6.666;2023-08-06T09:02:05;5.18;;;0.80;;
80850;SDS011;70268;50.292;6.666;2023-08-06T09:04:37;7.03;;;0.57;;
80850;SDS011;70268;50.292;6.666;2023-08-06T09:07:08;5.78;;;0.73;;
80850;SDS011;70268;50.292;6.666;2023-08-06T09:09:41;4.43;;;0.80;;
80850;SDS011;70268;50.292;6.666;2023-08-06T09:12:13;6.38;;;0.90;;
80850;SDS011;70268;50.292;6.666;2023-08-06T09:14:45;3.03;;;0.40;;
80850;SDS011;70268;50.292;6.666;2023-08-06T09:17:13;2.95;;;0.57;;
80850;SDS011;70268;50.292;6.666;2023-08-06T09:19:46;1.50;;;0.38;;
80850;SDS011;70268;50.292;6.666;2023-08-06T09:22:16;3.95;;;0.50;;
80850;SDS011;70268;50.292;6.666;2023-08-06T09:24:45;1.17;;;0.35;;
80850;SDS011;70268;50.292;6.666;2023-08-06T09:27:14;2.22;;;0.40;;
80850;SDS011;70268;50.292;6.666;2023-08-06T09:29:45;0.20;;;0.20;;
80850;SDS011;70268;50.292;6.666;2023-08-06T09:32:14;0.80;;;0.30;;
80850;SDS011;70268;50.292;6.666;2023-08-06T09:34:42;0.28;;;0.20;;
80850;SDS011;70268;50.292;6.666;2023-08-06T09:37:11;1.50;;;0.30;;
80850;SDS011;70268;50.292;6.666;2023-08-06T09:39:40;2.05;;;0.30;;
80850;SDS011;70268;50.292;6.666;2023-08-06T09:42:09;1.25;;;0.65;;
80850;SDS011;70268;50.292;6.666;2023-08-06T09:44:38;2.55;;;0.22;;
80850;SDS011;70268;50.292;6.666;2023-08-06T09:47:10;0.52;;;0.25;;
80850;SDS011;70268;50.292;6.666;2023-08-06T09:49:42;2.03;;;0.30;;
80850;SDS011;70268;50.292;6.666;2023-08-06T09:52:13;0.83;;;0.27;;
80850;SDS011;70268;50.292;6.666;2023-08-06T09:54:43;2.00;;;0.40;;
80850;SDS011;70268;50.292;6.666;2023-08-06T09:57:13;3.58;;;0.50;;
80850;SDS011;70268;50.292;6.666;2023-08-06T09:59:43;4.40;;;0.50;;
80850;SDS011;70268;50.292;6.666;2023-08-06T10:02:16;0.95;;;0.43;;
80850;SDS011;70268;50.292;6.666;2023-08-06T10:04:48;0.57;;;0.50;;
80850;SDS011;70268;50.292;6.666;2023-08-06T10:07:21;0.38;;;0.35;;
80850;SDS011;70268;50.292;6.666;2023-08-06T10:09:51;4.22;;;0.50;;
80850;SDS011;70268;50.292;6.666;2023-08-06T10:12:20;0.75;;;0.40;;
80850;SDS011;70268;50.292;6.666;2023-08-06T10:14:50;1.20;;;0.40;;
80850;SDS011;70268;50.292;6.666;2023-08-06T10:17:22;0.77;;;0.30;;
80850;SDS011;70268;50.292;6.666;2023-08-06T10:20:11;1.33;;;0.55;;
80850;SDS011;70268;50.292;6.666;2023-08-06T10:22:42;1.50;;;0.60;;
80850;SDS011;70268;50.292;6.666;2023-08-06T10:25:16;1.00;;;0.40;;
80850;SDS011;70268;50.292;6.666;2023-08-06T10:27:53;0.80;;;0.40;;
80850;SDS011;70268;50.292;6.666;2023-08-06T10:30:23;1.58;;;0.52;;
80850;SDS011;70268;50.292;6.666;2023-08-06T10:32:55;0.40;;;0.30;;
80850;SDS011;70268;50.292;6.666;2023-08-06T10:35:28;0.77;;;0.33;;
80850;SDS011;70268;50.292;6.666;2023-08-06T10:37:58;0.80;;;0.55;;
80850;SDS011;70268;50.292;6.666;2023-08-06T10:40:27;3.92;;;1.08;;
80850;SDS011;70268;50.292;6.666;2023-08-06T10:43:01;6.40;;;1.40;;
80850;SDS011;70268;50.292;6.666;2023-08-06T10:45:29;8.70;;;0.93;;
80850;SDS011;70268;50.292;6.666;2023-08-06T10:48:04;5.60;;;0.77;;
80850;SDS011;70268;50.292;6.666;2023-08-06T10:50:33;1.38;;;0.75;;
80850;SDS011;70268;50.292;6.666;2023-08-06T10:53:05;1.35;;;0.47;;
80850;SDS011;70268;50.292;6.666;2023-08-06T10:55:35;3.50;;;0.65;;
80850;SDS011;70268;50.292;6.666;2023-08-06T10:58:05;5.78;;;0.73;;
80850;SDS011;70268;50.292;6.666;2023-08-06T11:00:34;1.40;;;0.80;;
80850;SDS011;70268;50.292;6.666;2023-08-06T11:03:04;2.72;;;0.70;;
80850;SDS011;70268;50.292;6.666;2023-08-06T11:05:33;1.95;;;0.70;;
80850;SDS011;70268;50.292;6.666;2023-08-06T11:08:03;0.68;;;0.47;;
80850;SDS011;70268;50.292;6.666;2023-08-06T11:10:32;3.58;;;0.50;;
80850;SDS011;70268;50.292;6.666;2023-08-06T11:13:01;5.18;;;0.63;;
80850;SDS011;70268;50.292;6.666;2023-08-06T11:15:31;1.15;;;0.40;;
80850;SDS011;70268;50.292;6.666;2023-08-06T11:18:00;0.80;;;0.60;;
80850;SDS011;70268;50.292;6.666;2023-08-06T11:20:31;3.60;;;0.77;;
80850;SDS011;70268;50.292;6.666;2023-08-06T11:23:01;2.97;;;0.90;;
80850;SDS011;70268;50.292;6.666;2023-08-06T11:25:29;2.38;;;0.50;;
80850;SDS011;70268;50.292;6.666;2023-08-06T11:27:58;2.20;;;0.75;;
80850;SDS011;70268;50.292;6.666;2023-08-06T11:30:29;1.23;;;0.70;;
80850;SDS011;70268;50.292;6.666;2023-08-06T11:32:58;1.60;;;0.60;;
80850;SDS011;70268;50.292;6.666;2023-08-06T11:35:26;0.40;;;0.32;;
80850;SDS011;70268;50.292;6.666;2023-08-06T11:37:56;2.08;;;0.57;;
80850;SDS011;70268;50.292;6.666;2023-08-06T11:40:25;2.00;;;0.60;;
80850;SDS011;70268;50.292;6.666;2023-08-06T11:42:53;0.98;;;0.80;;
80850;SDS011;70268;50.292;6.666;2023-08-06T11:45:23;0.47;;;0.35;;
80850;SDS011;70268;50.292;6.666;2023-08-06T11:47:52;1.65;;;0.57;;
80850;SDS011;70268;50.292;6.666;2023-08-06T11:50:22;4.53;;;0.55;;
80850;SDS011;70268;50.292;6.666;2023-08-06T11:52:54;1.63;;;0.43;;
80850;SDS011;70268;50.292;6.666;2023-08-06T11:55:27;1.45;;;0.40;;
80850;SDS011;70268;50.292;6.666;2023-08-06T11:57:56;0.40;;;0.40;;
80850;SDS011;70268;50.292;6.666;2023-08-06T12:00:25;2.70;;;0.40;;
80850;SDS011;70268;50.292;6.666;2023-08-06T12:02:54;1.85;;;0.40;;
80850;SDS011;70268;50.292;6.666;2023-08-06T12:05:28;2.13;;;0.43;;
80850;SDS011;70268;50.292;6.666;2023-08-06T12:08:00;2.15;;;0.40;;
80850;SDS011;70268;50.292;6.666;2023-08-06T12:10:29;1.00;;;0.40;;
80850;SDS011;70268;50.292;6.666;2023-08-06T12:12:59;1.30;;;0.40;;
80850;SDS011;70268;50.292;6.666;2023-08-06T12:15:28;3.13;;;0.52;;
80850;SDS011;70268;50.292;6.666;2023-08-06T12:17:59;0.40;;;0.30;;
80850;SDS011;70268;50.292;6.666;2023-08-06T12:20:28;1.48;;;0.45;;
80850;SDS011;70268;50.292;6.666;2023-08-06T12:22:56;2.15;;;0.50;;
80850;SDS011;70268;50.292;6.666;2023-08-06T12:25:27;2.95;;;0.60;;
80850;SDS011;70268;50.292;6.666;2023-08-06T12:27:55;0.60;;;0.43;;
80850;SDS011;70268;50.292;6.666;2023-08-06T12:30:24;0.55;;;0.25;;
80850;SDS011;70268;50.292;6.666;2023-08-06T12:32:54;0.40;;;0.30;;
80850;SDS011;70268;50.292;6.666;2023-08-06T12:35:22;1.95;;;0.20;;
80850;SDS011;70268;50.292;6.666;2023-08-06T12:37:52;1.65;;;0.50;;
80850;SDS011;70268;50.292;6.666;2023-08-06T12:40:21;0.47;;;0.20;;
80850;SDS011;70268;50.292;6.666;2023-08-06T12:43:04;2.50;;;0.43;;
80850;SDS011;70268;50.292;6.666;2023-08-06T12:45:33;0.25;;;0.20;;
80850;SDS011;70268;50.292;6.666;2023-08-06T12:48:02;0.32;;;0.20;;
80850;SDS011;70268;50.292;6.666;2023-08-06T12:50:30;0.68;;;0.30;;
80850;SDS011;70268;50.292;6.666;2023-08-06T12:53:00;0.20;;;0.20;;
80850;SDS011;70268;50.292;6.666;2023-08-06T12:55:29;0.28;;;0.20;;
80850;SDS011;70268;50.292;6.666;2023-08-06T12:57:59;0.47;;;0.30;;
80850;SDS011;70268;50.292;6.666;2023-08-06T13:00:29;0.47;;;0.32;;
80850;SDS011;70268;50.292;6.666;2023-08-06T13:02:58;0.55;;;0.20;;
80850;SDS011;70268;50.292;6.666;2023-08-06T13:05:27;0.17;;;0.17;;
80850;SDS011;70268;50.292;6.666;2023-08-06T13:07:56;0.40;;;0.20;;
80850;SDS011;70268;50.292;6.666;2023-08-06T13:10:24;0.52;;;0.20;;
80850;SDS011;70268;50.292;6.666;2023-08-06T13:12:54;0.80;;;0.20;;
80850;SDS011;70268;50.292;6.666;2023-08-06T13:15:23;1.95;;;0.30;;
80850;SDS011;70268;50.292;6.666;2023-08-06T13:17:53;0.55;;;0.20;;
80850;SDS011;70268;50.292;6.666;2023-08-06T13:20:21;0.28;;;0.28;;
80850;SDS011;70268;50.292;6.666;2023-08-06T13:22:54;0.30;;;0.30;;
80850;SDS011;70268;50.292;6.666;2023-08-06T13:25:23;1.58;;;0.30;;
80850;SDS011;70268;50.292;6.666;2023-08-06T13:27:53;0.40;;;0.40;;
80850;SDS011;70268;50.292;6.666;2023-08-06T13:30:22;0.30;;;0.30;;
80850;SDS011;70268;50.292;6.666;2023-08-06T13:32:52;1.42;;;0.20;;
80850;SDS011;70268;50.292;6.666;2023-08-06T13:35:22;4.32;;;1.17;;
80850;SDS011;70268;50.292;6.666;2023-08-06T13:37:51;1.40;;;0.20;;
80850;SDS011;70268;50.292;6.666;2023-08-06T13:40:21;2.28;;;0.30;;
80850;SDS011;70268;50.292;6.666;2023-08-06T13:42:49;3.90;;;0.35;;
80850;SDS011;70268;50.292;6.666;2023-08-06T13:45:18;1.30;;;0.25;;
80850;SDS011;70268;50.292;6.666;2023-08-06T13:47:47;0.80;;;0.30;;
80850;SDS011;70268;50.292;6.666;2023-08-06T13:50:17;1.95;;;0.38;;
80850;SDS011;70268;50.292;6.666;2023-08-06T13:52:46;2.20;;;0.30;;
80850;SDS011;70268;50.292;6.666;2023-08-06T13:55:14;1.45;;;0.57;;
80850;SDS011;70268;50.292;6.666;2023-08-06T13:57:43;0.22;;;0.22;;
80850;SDS011;70268;50.292;6.666;2023-08-06T14:00:12;4.00;;;0.20;;
80850;SDS011;70268;50.292;6.666;2023-08-06T14:02:42;0.68;;;0.30;;
80850;SDS011;70268;50.292;6.666;2023-08-06T14:05:12;0.45;;;0.28;;
80850;SDS011;70268;50.292;6.666;2023-08-06T14:07:42;0.63;;;0.40;;
80850;SDS011;70268;50.292;6.666;2023-08-06T14:10:11;0.10;;;0.10;;
80850;SDS011;70268;50.292;6.666;2023-08-06T14:12:40;0.32;;;0.32;;
80850;SDS011;70268;50.292;6.666;2023-08-06T14:15:09;0.20;;;0.20;;
80850;SDS011;70268;50.292;6.666;2023-08-06T14:17:38;0.30;;;0.30;;
80850;SDS011;70268;50.292;6.666;2023-08-06T14:20:07;0.20;;;0.20;;
80850;SDS011;70268;50.292;6.666;2023-08-06T14:22:39;0.20;;;0.20;;
80850;SDS011;70268;50.292;6.666;2023-08-06T14:25:09;1.25;;;0.20;;
80850;SDS011;70268;50.292;6.666;2023-08-06T14:27:37;0.45;;;0.32;;
80850;SDS011;70268;50.292;6.666;2023-08-06T14:30:07;0.40;;;0.20;;
80850;SDS011;70268;50.292;6.666;2023-08-06T14:32:36;0.30;;;0.30;;
80850;SDS011;70268;50.292;6.666;2023-08-06T14:35:05;0.73;;;0.50;;
80850;SDS011;70268;50.292;6.666;2023-08-06T14:37:34;2.50;;;0.30;;
80850;SDS011;70268;50.292;6.666;2023-08-06T14:40:03;1.27;;;0.60;;
80850;SDS011;70268;50.292;6.666;2023-08-06T14:42:33;0.50;;;0.30;;
80850;SDS011;70268;50.292;6.666;2023-08-06T14:45:02;0.30;;;0.20;;
80850;SDS011;70268;50.292;6.666;2023-08-06T14:47:32;0.43;;;0.20;;
80850;SDS011;70268;50.292;6.666;2023-08-06T14:50:00;0.20;;;0.20;;
80850;SDS011;70268;50.292;6.666;2023-08-06T14:52:29;0.28;;;0.13;;
80850;SDS011;70268;50.292;6.666;2023-08-06T14:55:00;0.52;;;0.32;;
80850;SDS011;70268;50.292;6.666;2023-08-06T14:57:31;2.72;;;0.45;;
80850;SDS011;70268;50.292;6.666;2023-08-06T15:00:01;0.30;;;0.30;;
80850;SDS011;70268;50.292;6.666;2023-08-06T15:02:30;0.85;;;0.20;;